Archival Weather

Fayette Rgnl Air Cntr Arp

Fayette Rgnl Air Cntr Arp, Texas (K3T5)

Report from: Thursday, September 22, 2022 5:35 AM CDT
Current time: Saturday, February 4, 2023 12:05 AM CST

Current weather
Weather history
Weather forecast

Present weatherMist
Temperature21.0°C (69.8°F)
Dew point20.8°C (69.4°F)
Winds Calm
Visibility5 mi. (8 km)
Clouds Sky clear
Altimeter29.99 in.Hg (1016 mB)
Relative humidity99 %
Density altitude954 ft. (291 m)
Remarks Fully automated report
Automated weather observing station with precipitation discriminator
Flight conditions Visual Meteorological Conditions
Raw dataK3T5 221035Z AUTO 00000KT 5SM BR CLR 21/21 A2999 RMK AO2 T02100208
An unhandled exception has occurred. See browser dev tools for details. Reload 🗙